Private Wetterstation Sandau
Wetterdaten: Donnerstag, 14.03.2013
Datum Zeit Temp. A. Feuchte A. Luftdruck Regen Wind Richtung Richtung Taupunkt Windchill
14.03.2013 00:01 -7,3 C 79 % 1008,3 hPa 0,0 l/m 2,2 km/h (1 Bft) SO 135 -10,3 C -7,3 C
14.03.2013 00:06 -7,3 C 79 % 1008,3 hPa 0,0 l/m 4,0 km/h (1 Bft) SO 135 -10,3 C -7,3 C
14.03.2013 00:11 -7,4 C 80 % 1008,3 hPa 0,0 l/m 2,2 km/h (1 Bft) S-SO 157 -10,2 C -7,4 C
14.03.2013 00:16 -7,5 C 80 % 1008,4 hPa 0,0 l/m 0,0 km/h (0 Bft) SO 135 -10,3 C -7,5 C
14.03.2013 00:21 -7,6 C 80 % 1008,2 hPa 0,0 l/m 0,0 km/h (0 Bft) O-SO 112 -10,4 C -7,6 C
14.03.2013 00:26 -7,7 C 80 % 1008,5 hPa 0,0 l/m 0,0 km/h (0 Bft) SO 135 -10,5 C -7,7 C
14.03.2013 00:31 -7,9 C 80 % 1008,4 hPa 0,0 l/m 0,0 km/h (0 Bft) SO 135 -10,7 C -7,9 C
14.03.2013 00:36 -7,9 C 80 % 1008,5 hPa 0,0 l/m 0,0 km/h (0 Bft) SO 135 -10,7 C -7,9 C
14.03.2013 00:41 -7,9 C 80 % 1008,6 hPa 0,0 l/m 0,0 km/h (0 Bft) SO 135 -10,7 C -7,9 C
14.03.2013 00:46 -7,8 C 80 % 1008,5 hPa 0,0 l/m 1,8 km/h (1 Bft) SO 135 -10,6 C -7,8 C
14.03.2013 00:51 -7,7 C 81 % 1008,6 hPa 0,0 l/m 0,0 km/h (0 Bft) S-SO 157 -10,4 C -7,7 C
14.03.2013 00:56 -7,6 C 81 % 1008,5 hPa 0,0 l/m 1,8 km/h (1 Bft) SO 135 -10,3 C -7,6 C
14.03.2013 01:01 -7,4 C 81 % 1008,5 hPa 0,0 l/m 2,2 km/h (1 Bft) S-SO 157 -10,1 C -7,4 C
14.03.2013 01:06 -7,2 C 82 % 1008,7 hPa 0,0 l/m 0,0 km/h (0 Bft) S-SO 157 -9,7 C -7,2 C
14.03.2013 01:11 -7,1 C 82 % 1008,6 hPa 0,0 l/m 1,4 km/h (1 Bft) SO 135 -9,6 C -7,1 C
14.03.2013 01:16 -7,1 C 82 % 1008,6 hPa 0,0 l/m 3,6 km/h (1 Bft) S-SO 157 -9,6 C -7,1 C
14.03.2013 01:21 -7,1 C 82 % 1008,7 hPa 0,0 l/m 2,2 km/h (1 Bft) SO 135 -9,6 C -7,1 C
14.03.2013 01:26 -7,1 C 82 % 1008,7 hPa 0,0 l/m 2,2 km/h (1 Bft) SO 135 -9,6 C -7,1 C
14.03.2013 01:31 -7,1 C 82 % 1008,7 hPa 0,0 l/m 0,0 km/h (0 Bft) S 180 -9,6 C -7,1 C
14.03.2013 01:36 -6,9 C 82 % 1008,7 hPa 0,0 l/m 3,2 km/h (1 Bft) S-SO 157 -9,4 C -6,9 C
14.03.2013 01:41 -6,9 C 82 % 1008,5 hPa 0,0 l/m 4,0 km/h (1 Bft) S-SO 157 -9,4 C -6,9 C
14.03.2013 01:46 -6,7 C 82 % 1008,6 hPa 0,0 l/m 0,0 km/h (0 Bft) S 180 -9,2 C -6,7 C
14.03.2013 01:51 -6,7 C 82 % 1008,8 hPa 0,0 l/m 2,5 km/h (1 Bft) S-SO 157 -9,2 C -6,7 C
14.03.2013 01:56 -6,6 C 82 % 1008,8 hPa 0,0 l/m 0,0 km/h (0 Bft) S 180 -9,1 C -6,6 C
14.03.2013 02:01 -6,5 C 82 % 1008,8 hPa 0,0 l/m 3,6 km/h (1 Bft) S 180 -9,0 C -6,5 C
14.03.2013 02:06 -6,5 C 82 % 1008,8 hPa 0,0 l/m 3,2 km/h (1 Bft) S-SW 202 -9,0 C -6,5 C
14.03.2013 02:11 -6,4 C 82 % 1008,8 hPa 0,0 l/m 3,2 km/h (1 Bft) S 180 -9,0 C -6,4 C
14.03.2013 02:16 -6,4 C 82 % 1008,5 hPa 0,0 l/m 0,0 km/h (0 Bft) S 180 -9,0 C -6,4 C
14.03.2013 02:21 -6,4 C 82 % 1008,7 hPa 0,0 l/m 2,9 km/h (1 Bft) S 180 -9,0 C -6,4 C
14.03.2013 02:26 -6,2 C 82 % 1008,7 hPa 0,0 l/m 1,4 km/h (1 Bft) S 180 -8,8 C -6,2 C
14.03.2013 02:31 -6,2 C 82 % 1008,6 hPa 0,0 l/m 0,0 km/h (0 Bft) S 180 -8,8 C -6,2 C
14.03.2013 02:36 -6,2 C 82 % 1008,6 hPa 0,0 l/m 0,0 km/h (0 Bft) S 180 -8,8 C -6,2 C
14.03.2013 02:41 -6,2 C 82 % 1008,7 hPa 0,0 l/m 1,4 km/h (1 Bft) S 180 -8,8 C -6,2 C
14.03.2013 02:46 -6,2 C 82 % 1008,7 hPa 0,0 l/m 4,0 km/h (1 Bft) S-SO 157 -8,8 C -6,2 C
14.03.2013 02:51 -6,2 C 82 % 1008,7 hPa 0,0 l/m 3,6 km/h (1 Bft) S-SO 157 -8,8 C -6,2 C
14.03.2013 02:56 -6,2 C 82 % 1008,7 hPa 0,0 l/m 0,0 km/h (0 Bft) S 180 -8,8 C -6,2 C
14.03.2013 03:01 -6,1 C 82 % 1008,7 hPa 0,0 l/m 0,0 km/h (0 Bft) S 180 -8,7 C -6,1 C
14.03.2013 03:06 -6,1 C 82 % 1008,7 hPa 0,0 l/m 1,8 km/h (1 Bft) S 180 -8,7 C -6,1 C
14.03.2013 03:11 -6,1 C 82 % 1008,8 hPa 0,0 l/m 0,0 km/h (0 Bft) S 180 -8,7 C -6,1 C
14.03.2013 03:16 -6,1 C 82 % 1008,7 hPa 0,0 l/m 0,0 km/h (0 Bft) S 180 -8,7 C -6,1 C
14.03.2013 03:21 -5,9 C 82 % 1008,7 hPa 0,0 l/m 1,1 km/h (1 Bft) S 180 -8,5 C -5,9 C
14.03.2013 03:26 -5,9 C 82 % 1008,7 hPa 0,0 l/m 2,5 km/h (1 Bft) S-SO 157 -8,5 C -5,9 C
14.03.2013 03:31 -5,9 C 83 % 1008,7 hPa 0,0 l/m 0,0 km/h (0 Bft) S-SO 157 -8,3 C -5,9 C
14.03.2013 03:36 -5,9 C 83 % 1008,5 hPa 0,0 l/m 0,0 km/h (0 Bft) S-SO 157 -8,3 C -5,9 C
14.03.2013 03:41 -5,8 C 83 % 1008,5 hPa 0,0 l/m 0,0 km/h (0 Bft) S-SO 157 -8,2 C -5,8 C
14.03.2013 03:46 -5,7 C 83 % 1008,4 hPa 0,0 l/m 0,0 km/h (0 Bft) S-SO 157 -8,1 C -5,7 C
14.03.2013 03:51 -5,6 C 83 % 1008,5 hPa 0,0 l/m 0,0 km/h (0 Bft) S-SO 157 -8,0 C -5,6 C
14.03.2013 03:56 -5,6 C 83 % 1008,6 hPa 0,0 l/m 0,0 km/h (0 Bft) S-SO 157 -8,0 C -5,6 C
14.03.2013 04:01 -5,6 C 83 % 1008,5 hPa 0,0 l/m 2,2 km/h (1 Bft) O-SO 112 -8,0 C -5,6 C
14.03.2013 04:06 -5,7 C 83 % 1008,6 hPa 0,0 l/m 2,5 km/h (1 Bft) SO 135 -8,1 C -5,7 C
14.03.2013 04:11 -5,8 C 83 % 1008,6 hPa 0,0 l/m 1,8 km/h (1 Bft) SO 135 -8,2 C -5,8 C
14.03.2013 04:16 -5,9 C 83 % 1008,5 hPa 0,0 l/m 1,8 km/h (1 Bft) O-SO 112 -8,3 C -5,9 C
14.03.2013 04:21 -5,9 C 83 % 1008,5 hPa 0,0 l/m 0,0 km/h (0 Bft) O-SO 112 -8,3 C -5,9 C
14.03.2013 04:26 -5,9 C 83 % 1008,6 hPa 0,0 l/m 1,1 km/h (1 Bft) O-SO 112 -8,3 C -5,9 C
14.03.2013 04:31 -5,9 C 83 % 1008,6 hPa 0,0 l/m 2,5 km/h (1 Bft) SO 135 -8,3 C -5,9 C
14.03.2013 04:36 -5,9 C 83 % 1008,5 hPa 0,0 l/m 0,0 km/h (0 Bft) SO 135 -8,3 C -5,9 C
14.03.2013 04:41 -5,8 C 83 % 1008,7 hPa 0,0 l/m 0,0 km/h (0 Bft) SO 135 -8,2 C -5,8 C
14.03.2013 04:46 -5,8 C 83 % 1008,4 hPa 0,0 l/m 0,0 km/h (0 Bft) SO 135 -8,2 C -5,8 C
14.03.2013 04:51 -5,8 C 83 % 1008,5 hPa 0,0 l/m 0,0 km/h (0 Bft) O-NO 67 -8,2 C -5,8 C
14.03.2013 04:56 -5,8 C 84 % 1008,5 hPa 0,0 l/m 0,0 km/h (0 Bft) O 90 -8,1 C -5,8 C
14.03.2013 05:01 -5,8 C 84 % 1008,6 hPa 0,0 l/m 0,0 km/h (0 Bft) SO 135 -8,1 C -5,8 C
14.03.2013 05:06 -5,7 C 84 % 1008,3 hPa 0,0 l/m 2,9 km/h (1 Bft) O-SO 112 -8,0 C -5,7 C
14.03.2013 05:11 -5,7 C 84 % 1008,4 hPa 0,0 l/m 0,0 km/h (0 Bft) SO 135 -8,0 C -5,7 C
14.03.2013 05:16 -5,7 C 84 % 1008,6 hPa 0,0 l/m 1,8 km/h (1 Bft) O-SO 112 -8,0 C -5,7 C
14.03.2013 05:21 -5,7 C 84 % 1008,4 hPa 0,0 l/m 1,4 km/h (1 Bft) SO 135 -8,0 C -5,7 C
14.03.2013 05:26 -5,6 C 84 % 1008,4 hPa 0,0 l/m 0,0 km/h (0 Bft) SO 135 -7,9 C -5,6 C
14.03.2013 05:31 -5,6 C 84 % 1008,5 hPa 0,0 l/m 4,0 km/h (1 Bft) SO 135 -7,9 C -5,6 C
14.03.2013 05:36 -5,5 C 84 % 1008,5 hPa 0,0 l/m 3,6 km/h (1 Bft) SO 135 -7,8 C -5,5 C
14.03.2013 05:41 -5,5 C 84 % 1008,5 hPa 0,0 l/m 2,9 km/h (1 Bft) SO 135 -7,8 C -5,5 C
14.03.2013 05:46 -5,6 C 84 % 1008,4 hPa 0,0 l/m 0,0 km/h (0 Bft) SO 135 -7,9 C -5,6 C
14.03.2013 05:51 -5,5 C 84 % 1008,5 hPa 0,0 l/m 0,0 km/h (0 Bft) SO 135 -7,8 C -5,5 C
14.03.2013 05:56 -5,5 C 84 % 1008,4 hPa 0,0 l/m 3,2 km/h (1 Bft) SO 135 -7,8 C -5,5 C
14.03.2013 06:01 -5,5 C 84 % 1008,5 hPa 0,0 l/m 1,1 km/h (1 Bft) O-SO 112 -7,8 C -5,5 C
14.03.2013 06:06 -5,5 C 84 % 1008,6 hPa 0,0 l/m 2,2 km/h (1 Bft) SO 135 -7,8 C -5,5 C
14.03.2013 06:11 -5,5 C 84 % 1008,7 hPa 0,0 l/m 0,0 km/h (0 Bft) SO 135 -7,8 C -5,5 C
14.03.2013 06:16 -5,4 C 84 % 1008,5 hPa 0,0 l/m 0,0 km/h (0 Bft) SO 135 -7,7 C -5,4 C
14.03.2013 06:21 -5,3 C 84 % 1008,6 hPa 0,0 l/m 0,0 km/h (0 Bft) S-SO 157 -7,6 C -5,3 C
14.03.2013 06:26 -5,2 C 84 % 1008,7 hPa 0,0 l/m 0,0 km/h (0 Bft) S-SO 157 -7,5 C -5,2 C
14.03.2013 06:31 -5,1 C 84 % 1008,8 hPa 0,0 l/m 0,0 km/h (0 Bft) S-SO 157 -7,4 C -5,1 C
14.03.2013 06:36 -5,1 C 84 % 1008,9 hPa 0,0 l/m 0,0 km/h (0 Bft) S-SO 157 -7,4 C -5,1 C
14.03.2013 06:41 -5,0 C 84 % 1008,9 hPa 0,0 l/m 0,0 km/h (0 Bft) S-SO 157 -7,3 C -5,0 C
14.03.2013 06:46 -4,9 C 84 % 1008,8 hPa 0,0 l/m 1,1 km/h (1 Bft) S-SO 157 -7,2 C -4,9 C
14.03.2013 06:51 -4,9 C 84 % 1008,9 hPa 0,0 l/m 0,0 km/h (0 Bft) S-SO 157 -7,2 C -4,9 C
14.03.2013 06:56 -4,8 C 84 % 1009,0 hPa 0,0 l/m 2,2 km/h (1 Bft) S-SO 157 -7,1 C -4,8 C
14.03.2013 07:01 -4,7 C 84 % 1009,0 hPa 0,0 l/m 0,0 km/h (0 Bft) S-SO 157 -7,0 C -4,7 C
14.03.2013 07:06 -4,6 C 84 % 1009,1 hPa 0,0 l/m 3,2 km/h (1 Bft) S-SW 202 -6,9 C -4,6 C
14.03.2013 07:11 -4,5 C 84 % 1009,0 hPa 0,0 l/m 0,0 km/h (0 Bft) S-SO 157 -6,8 C -4,5 C
14.03.2013 07:16 -4,4 C 84 % 1009,0 hPa 0,0 l/m 0,0 km/h (0 Bft) W-SW 247 -6,7 C -4,4 C
14.03.2013 07:21 -4,2 C 84 % 1009,2 hPa 0,0 l/m 0,0 km/h (0 Bft) O-SO 112 -6,5 C -4,2 C
14.03.2013 07:26 -4,2 C 84 % 1009,4 hPa 0,0 l/m 2,9 km/h (1 Bft) NO 45 -6,5 C -4,2 C
14.03.2013 07:31 -4,2 C 84 % 1009,3 hPa 0,0 l/m 0,0 km/h (0 Bft) NO 45 -6,5 C -4,2 C
14.03.2013 07:36 -4,1 C 84 % 1009,5 hPa 0,0 l/m 0,0 km/h (0 Bft) NO 45 -6,4 C -4,1 C
14.03.2013 07:41 -3,9 C 83 % 1009,4 hPa 0,0 l/m 2,5 km/h (1 Bft) NO 45 -6,4 C -3,9 C
14.03.2013 07:46 -3,9 C 83 % 1009,5 hPa 0,0 l/m 0,0 km/h (0 Bft) O-SO 112 -6,4 C -3,9 C
14.03.2013 07:51 -3,9 C 83 % 1009,5 hPa 0,0 l/m 1,1 km/h (1 Bft) O-SO 112 -6,4 C -3,9 C
14.03.2013 07:56 -3,9 C 83 % 1009,6 hPa 0,0 l/m 2,5 km/h (1 Bft) O-SO 112 -6,4 C -3,9 C
14.03.2013 08:01 -3,9 C 83 % 1009,6 hPa 0,0 l/m 5,0 km/h (1 Bft) O-SO 112 -6,4 C -6,0 C
14.03.2013 08:06 -3,9 C 83 % 1009,6 hPa 0,0 l/m 2,5 km/h (1 Bft) O-SO 112 -6,4 C -3,9 C
14.03.2013 08:11 -4,1 C 83 % 1009,6 hPa 0,0 l/m 2,9 km/h (1 Bft) O-NO 67 -6,5 C -4,1 C
14.03.2013 08:16 -4,1 C 83 % 1009,8 hPa 0,0 l/m 0,0 km/h (0 Bft) O-SO 112 -6,5 C -4,1 C
14.03.2013 08:21 -3,9 C 83 % 1009,8 hPa 0,0 l/m 0,0 km/h (0 Bft) SO 135 -6,4 C -3,9 C
14.03.2013 08:26 -3,6 C 83 % 1009,8 hPa 0,0 l/m 0,0 km/h (0 Bft) SO 135 -6,1 C -3,6 C
14.03.2013 08:31 -3,2 C 83 % 1009,8 hPa 0,0 l/m 0,0 km/h (0 Bft) SO 135 -5,7 C -3,2 C
14.03.2013 08:36 -2,7 C 83 % 1009,8 hPa 0,0 l/m 0,0 km/h (0 Bft) SO 135 -5,2 C -2,7 C
14.03.2013 08:41 -2,6 C 82 % 1009,9 hPa 0,0 l/m 2,2 km/h (1 Bft) O-SO 112 -5,2 C -2,6 C
14.03.2013 08:46 -2,5 C 82 % 1009,9 hPa 0,0 l/m 1,4 km/h (1 Bft) O-SO 112 -5,1 C -2,5 C
14.03.2013 08:51 -2,5 C 82 % 1010,0 hPa 0,0 l/m 0,0 km/h (0 Bft) SO 135 -5,1 C -2,5 C
14.03.2013 08:56 -2,4 C 82 % 1009,9 hPa 0,0 l/m 0,0 km/h (0 Bft) SO 135 -5,0 C -2,4 C
14.03.2013 09:01 -1,9 C 82 % 1010,0 hPa 0,0 l/m 0,0 km/h (0 Bft) SO 135 -4,6 C -1,9 C
14.03.2013 09:06 -1,8 C 81 % 1009,9 hPa 0,0 l/m 0,0 km/h (0 Bft) O-SO 112 -4,6 C -1,8 C
14.03.2013 09:11 -1,6 C 81 % 1010,1 hPa 0,0 l/m 0,0 km/h (0 Bft) SO 135 -4,4 C -1,6 C
14.03.2013 09:16 -1,2 C 80 % 1010,1 hPa 0,0 l/m 0,0 km/h (0 Bft) SO 135 -4,2 C -1,2 C
14.03.2013 09:21 -1,1 C 80 % 1010,0 hPa 0,0 l/m 2,9 km/h (1 Bft) O 90 -4,1 C -1,1 C
14.03.2013 09:26 -1,2 C 79 % 1010,1 hPa 0,0 l/m 0,0 km/h (0 Bft) O-NO 67 -4,4 C -1,2 C
14.03.2013 09:31 -1,1 C 79 % 1010,2 hPa 0,0 l/m 1,1 km/h (1 Bft) O-NO 67 -4,3 C -1,1 C
14.03.2013 09:36 -1,0 C 79 % 1010,2 hPa 0,0 l/m 0,0 km/h (0 Bft) O-NO 67 -4,2 C -1,0 C
14.03.2013 09:41 -1,0 C 79 % 1010,3 hPa 0,0 l/m 2,2 km/h (1 Bft) O-NO 67 -4,2 C -1,0 C
14.03.2013 09:46 -0,9 C 78 % 1010,3 hPa 0,0 l/m 0,0 km/h (0 Bft) SO 135 -4,2 C -0,9 C
14.03.2013 09:51 -1,1 C 78 % 1010,3 hPa 0,0 l/m 1,4 km/h (1 Bft) O-SO 112 -4,4 C -1,1 C
14.03.2013 09:56 -1,1 C 78 % 1010,3 hPa 0,0 l/m 1,8 km/h (1 Bft) O-SO 112 -4,4 C -1,1 C
14.03.2013 10:01 -1,1 C 78 % 1010,5 hPa 0,0 l/m 4,3 km/h (1 Bft) O-SO 112 -4,4 C -1,1 C
14.03.2013 10:06 -1,1 C 78 % 1010,4 hPa 0,0 l/m 0,0 km/h (0 Bft) O-SO 112 -4,4 C -1,1 C
14.03.2013 10:11 -1,1 C 78 % 1010,6 hPa 0,0 l/m 2,2 km/h (1 Bft) O-SO 112 -4,4 C -1,1 C
14.03.2013 10:16 -1,1 C 78 % 1010,5 hPa 0,0 l/m 2,9 km/h (1 Bft) O-SO 112 -4,4 C -1,1 C
14.03.2013 10:21 -0,9 C 78 % 1010,6 hPa 0,0 l/m 3,6 km/h (1 Bft) O-SO 112 -4,2 C -0,9 C
14.03.2013 10:26 -0,9 C 78 % 1010,6 hPa 0,0 l/m 0,0 km/h (0 Bft) O 90 -4,2 C -0,9 C
14.03.2013 10:31 -0,7 C 78 % 1010,6 hPa 0,0 l/m 0,0 km/h (0 Bft) O-SO 112 -4,0 C -0,7 C
14.03.2013 10:36 -0,5 C 77 % 1010,7 hPa 0,0 l/m 1,8 km/h (1 Bft) O 90 -4,0 C -0,5 C
14.03.2013 10:41 -0,4 C 77 % 1010,7 hPa 0,0 l/m 0,0 km/h (0 Bft) O 90 -3,9 C -0,4 C
14.03.2013 10:46 -0,4 C 77 % 1010,9 hPa 0,0 l/m 1,4 km/h (1 Bft) SO 135 -3,9 C -0,4 C
14.03.2013 10:51 -0,4 C 77 % 1010,9 hPa 0,0 l/m 3,2 km/h (1 Bft) SO 135 -3,9 C -0,4 C
14.03.2013 10:56 -0,2 C 77 % 1010,9 hPa 0,0 l/m 3,2 km/h (1 Bft) S 180 -3,7 C -0,2 C
14.03.2013 11:01 -0,2 C 77 % 1010,9 hPa 0,0 l/m 2,2 km/h (1 Bft) S-SO 157 -3,7 C -0,2 C
14.03.2013 11:06 0,1 C 77 % 1010,8 hPa 0,0 l/m 0,0 km/h (0 Bft) SO 135 -3,4 C 0,1 C
14.03.2013 11:11 0,4 C 76 % 1010,7 hPa 0,0 l/m 0,0 km/h (0 Bft) SO 135 -3,3 C 0,4 C
14.03.2013 11:16 0,6 C 76 % 1010,9 hPa 0,0 l/m 0,0 km/h (0 Bft) O 90 -3,1 C 0,6 C
14.03.2013 11:21 0,8 C 75 % 1010,8 hPa 0,0 l/m 1,8 km/h (1 Bft) O 90 -3,1 C 0,8 C
14.03.2013 11:26 1,3 C 75 % 1010,9 hPa 0,0 l/m 3,2 km/h (1 Bft) W-SW 247 -2,6 C 1,3 C
14.03.2013 11:31 1,6 C 74 % 1011,0 hPa 0,0 l/m 0,0 km/h (0 Bft) W 270 -2,5 C 1,6 C
14.03.2013 11:36 1,9 C 74 % 1010,9 hPa 0,0 l/m 1,4 km/h (1 Bft) W-NW 292 -2,2 C 1,9 C
14.03.2013 11:41 2,3 C 72 % 1010,9 hPa 0,0 l/m 2,2 km/h (1 Bft) W 270 -2,2 C 2,3 C
14.03.2013 11:46 2,4 C 72 % 1010,9 hPa 0,0 l/m 2,2 km/h (1 Bft) N-NW 337 -2,1 C 2,4 C
14.03.2013 11:51 2,6 C 72 % 1010,8 hPa 0,0 l/m 1,4 km/h (1 Bft) W-NW 292 -1,9 C 2,6 C
14.03.2013 11:56 2,7 C 71 % 1010,9 hPa 0,0 l/m 0,0 km/h (0 Bft) NW 315 -2,0 C 2,7 C
14.03.2013 12:01 2,9 C 71 % 1010,9 hPa 0,0 l/m 3,2 km/h (1 Bft) W-NW 292 -1,8 C 2,9 C
14.03.2013 12:06 3,0 C 71 % 1010,8 hPa 0,0 l/m 3,2 km/h (1 Bft) NO 45 -1,7 C 3,0 C
14.03.2013 12:11 2,7 C 69 % 1011,0 hPa 0,0 l/m 0,0 km/h (0 Bft) N 360 -2,4 C 2,7 C
14.03.2013 12:16 2,4 C 69 % 1011,0 hPa 0,0 l/m 2,2 km/h (1 Bft) N-NO 22 -2,7 C 2,4 C
14.03.2013 12:21 2,1 C 70 % 1010,8 hPa 0,0 l/m 2,9 km/h (1 Bft) W 270 -2,8 C 2,1 C
14.03.2013 12:26 2,2 C 70 % 1010,9 hPa 0,0 l/m 1,8 km/h (1 Bft) NW 315 -2,7 C 2,2 C
14.03.2013 12:31 2,4 C 70 % 1010,9 hPa 0,0 l/m 3,6 km/h (1 Bft) W-NW 292 -2,5 C 2,4 C
14.03.2013 12:36 2,8 C 70 % 1011,0 hPa 0,0 l/m 2,5 km/h (1 Bft) W-NW 292 -2,1 C 2,8 C
14.03.2013 12:41 3,0 C 69 % 1011,0 hPa 0,0 l/m 0,0 km/h (0 Bft) W-NW 292 -2,1 C 3,0 C
14.03.2013 12:46 3,0 C 69 % 1011,0 hPa 0,0 l/m 3,6 km/h (1 Bft) W-NW 292 -2,1 C 3,0 C
14.03.2013 12:51 3,1 C 69 % 1010,9 hPa 0,0 l/m 5,4 km/h (1 Bft) NW 315 -2,0 C 1,8 C
14.03.2013 12:56 3,2 C 68 % 1010,9 hPa 0,0 l/m 0,0 km/h (0 Bft) W-NW 292 -2,1 C 3,2 C
14.03.2013 13:01 3,2 C 68 % 1011,0 hPa 0,0 l/m 5,4 km/h (1 Bft) W 270 -2,1 C 1,9 C
14.03.2013 13:06 3,0 C 68 % 1010,9 hPa 0,0 l/m 3,6 km/h (1 Bft) W-NW 292 -2,3 C 3,0 C
14.03.2013 13:11 3,1 C 68 % 1010,9 hPa 0,0 l/m 0,0 km/h (0 Bft) W 270 -2,2 C 3,1 C
14.03.2013 13:16 3,1 C 68 % 1010,9 hPa 0,0 l/m 1,4 km/h (1 Bft) W-NW 292 -2,2 C 3,1 C
14.03.2013 13:21 3,1 C 68 % 1010,8 hPa 0,0 l/m 0,0 km/h (0 Bft) W-SW 247 -2,2 C 3,1 C
14.03.2013 13:26 3,2 C 68 % 1010,8 hPa 0,0 l/m 0,0 km/h (0 Bft) W-NW 292 -2,1 C 3,2 C
14.03.2013 13:31 3,3 C 68 % 1010,7 hPa 0,0 l/m 2,9 km/h (1 Bft) W-NW 292 -2,0 C 3,3 C
14.03.2013 13:36 3,5 C 68 % 1010,6 hPa 0,0 l/m 6,1 km/h (2 Bft) W-NW 292 -1,8 C 2,0 C
14.03.2013 13:41 3,4 C 68 % 1010,8 hPa 0,0 l/m 5,8 km/h (2 Bft) NW 315 -1,9 C 2,0 C
14.03.2013 13:46 3,2 C 68 % 1010,8 hPa 0,0 l/m 4,3 km/h (1 Bft) N-NW 337 -2,1 C 3,2 C
14.03.2013 13:51 3,1 C 68 % 1010,8 hPa 0,0 l/m 3,6 km/h (1 Bft) N-NW 337 -2,2 C 3,1 C
14.03.2013 13:56 2,9 C 68 % 1010,8 hPa 0,0 l/m 4,7 km/h (1 Bft) NW 315 -2,4 C 1,8 C
14.03.2013 14:01 2,9 C 68 % 1010,7 hPa 0,0 l/m 3,6 km/h (1 Bft) NW 315 -2,4 C 2,9 C
14.03.2013 14:06 2,9 C 68 % 1010,7 hPa 0,0 l/m 0,0 km/h (0 Bft) N-NO 22 -2,4 C 2,9 C
14.03.2013 14:11 2,9 C 69 % 1010,5 hPa 0,0 l/m 1,4 km/h (1 Bft) N-NW 337 -2,2 C 2,9 C
14.03.2013 14:16 3,1 C 68 % 1010,5 hPa 0,0 l/m 2,5 km/h (1 Bft) NO 45 -2,2 C 3,1 C
14.03.2013 14:21 3,1 C 68 % 1010,6 hPa 0,0 l/m 1,4 km/h (1 Bft) W 270 -2,2 C 3,1 C
14.03.2013 14:26 3,2 C 68 % 1010,6 hPa 0,0 l/m 0,0 km/h (0 Bft) W-SW 247 -2,1 C 3,2 C
14.03.2013 14:31 3,2 C 67 % 1010,6 hPa 0,0 l/m 0,0 km/h (0 Bft) N 360 -2,3 C 3,2 C
14.03.2013 14:36 3,3 C 67 % 1010,6 hPa 0,0 l/m 2,9 km/h (1 Bft) SO 135 -2,2 C 3,3 C
14.03.2013 14:41 3,5 C 66 % 1010,5 hPa 0,0 l/m 0,0 km/h (0 Bft) O-SO 112 -2,2 C 3,5 C
14.03.2013 14:46 3,3 C 65 % 1010,6 hPa 0,0 l/m 4,3 km/h (1 Bft) O-SO 112 -2,6 C 3,3 C
14.03.2013 14:51 3,2 C 66 % 1010,5 hPa 0,0 l/m 5,8 km/h (2 Bft) S-SO 157 -2,5 C 1,7 C
14.03.2013 14:56 3,1 C 66 % 1010,5 hPa 0,0 l/m 4,7 km/h (1 Bft) O-SO 112 -2,6 C 2,1 C
14.03.2013 15:01 2,9 C 66 % 1010,5 hPa 0,0 l/m 0,0 km/h (0 Bft) SO 135 -2,8 C 2,9 C
14.03.2013 15:06 2,9 C 67 % 1010,6 hPa 0,0 l/m 0,0 km/h (0 Bft) S-SO 157 -2,6 C 2,9 C
14.03.2013 15:11 2,9 C 66 % 1010,6 hPa 0,0 l/m 4,7 km/h (1 Bft) SW 225 -2,8 C 1,8 C
14.03.2013 15:16 2,8 C 67 % 1010,7 hPa 0,0 l/m 2,5 km/h (1 Bft) SW 225 -2,7 C 2,8 C
14.03.2013 15:21 2,6 C 67 % 1010,5 hPa 0,0 l/m 4,7 km/h (1 Bft) W 270 -2,9 C 1,5 C
14.03.2013 15:26 2,5 C 68 % 1010,4 hPa 0,0 l/m 3,6 km/h (1 Bft) W-SW 247 -2,8 C 2,5 C
14.03.2013 15:31 2,7 C 68 % 1010,5 hPa 0,0 l/m 4,7 km/h (1 Bft) W-NW 292 -2,6 C 1,6 C
14.03.2013 15:36 3,1 C 67 % 1010,6 hPa 0,0 l/m 1,4 km/h (1 Bft) SW 225 -2,4 C 3,1 C
14.03.2013 15:41 3,5 C 66 % 1010,6 hPa 0,0 l/m 0,0 km/h (0 Bft) W-NW 292 -2,2 C 3,5 C
14.03.2013 15:46 3,8 C 65 % 1010,6 hPa 0,0 l/m 0,0 km/h (0 Bft) NW 315 -2,2 C 3,8 C
14.03.2013 15:51 3,5 C 64 % 1010,6 hPa 0,0 l/m 0,0 km/h (0 Bft) N-NO 22 -2,7 C 3,5 C
14.03.2013 15:56 3,0 C 65 % 1010,7 hPa 0,0 l/m 4,0 km/h (1 Bft) W 270 -2,9 C 3,0 C
14.03.2013 16:01 2,6 C 66 % 1010,7 hPa 0,0 l/m 4,3 km/h (1 Bft) NW 315 -3,1 C 2,6 C
14.03.2013 16:06 2,2 C 68 % 1010,8 hPa 0,0 l/m 4,7 km/h (1 Bft) NW 315 -3,1 C 1,0 C
14.03.2013 16:11 1,7 C 69 % 1010,8 hPa 0,0 l/m 1,1 km/h (1 Bft) NW 315 -3,4 C 1,7 C
14.03.2013 16:16 1,3 C 71 % 1011,0 hPa 0,0 l/m 4,0 km/h (1 Bft) NO 45 -3,4 C 1,3 C
14.03.2013 16:21 0,8 C 74 % 1011,0 hPa 0,0 l/m 5,4 km/h (1 Bft) N-NO 22 -3,3 C -0,9 C
14.03.2013 16:26 0,4 C 76 % 1011,0 hPa 0,0 l/m 5,4 km/h (1 Bft) N-NO 22 -3,3 C -1,3 C
14.03.2013 16:31 0,0 C 77 % 1011,0 hPa 0,0 l/m 4,0 km/h (1 Bft) N-NO 22 -3,5 C 0,0 C
14.03.2013 16:36 -0,2 C 79 % 1011,0 hPa 0,0 l/m 2,5 km/h (1 Bft) N 360 -3,4 C -0,2 C
14.03.2013 16:41 -0,4 C 79 % 1011,0 hPa 0,0 l/m 2,2 km/h (1 Bft) NW 315 -3,6 C -0,4 C
14.03.2013 16:46 -0,2 C 80 % 1011,2 hPa 0,0 l/m 3,6 km/h (1 Bft) NW 315 -3,2 C -0,2 C
14.03.2013 16:51 -0,2 C 80 % 1011,1 hPa 0,0 l/m 0,0 km/h (0 Bft) W 270 -3,2 C -0,2 C
14.03.2013 16:56 -0,1 C 80 % 1011,1 hPa 0,0 l/m 0,0 km/h (0 Bft) W-NW 292 -3,1 C -0,1 C
14.03.2013 17:01 -0,1 C 80 % 1011,1 hPa 0,0 l/m 4,0 km/h (1 Bft) W 270 -3,1 C -0,1 C
14.03.2013 17:06 -0,1 C 80 % 1011,1 hPa 0,0 l/m 0,0 km/h (0 Bft) W-NW 292 -3,1 C -0,1 C
14.03.2013 17:11 -0,2 C 80 % 1011,3 hPa 0,0 l/m 2,9 km/h (1 Bft) W 270 -3,2 C -0,2 C
14.03.2013 17:16 -0,2 C 80 % 1011,2 hPa 0,0 l/m 0,0 km/h (0 Bft) NW 315 -3,2 C -0,2 C
14.03.2013 17:21 -0,4 C 80 % 1011,2 hPa 0,0 l/m 0,0 km/h (0 Bft) NW 315 -3,4 C -0,4 C
14.03.2013 17:26 -0,4 C 80 % 1011,3 hPa 0,0 l/m 0,0 km/h (0 Bft) NW 315 -3,4 C -0,4 C
14.03.2013 17:31 -0,4 C 80 % 1011,4 hPa 0,0 l/m 1,1 km/h (1 Bft) NW 315 -3,4 C -0,4 C
14.03.2013 17:36 -0,6 C 80 % 1011,4 hPa 0,0 l/m 1,1 km/h (1 Bft) NW 315 -3,6 C -0,6 C
14.03.2013 17:41 -0,6 C 80 % 1011,3 hPa 0,0 l/m 2,9 km/h (1 Bft) NW 315 -3,6 C -0,6 C
14.03.2013 17:46 -0,8 C 79 % 1011,2 hPa 0,0 l/m 0,0 km/h (0 Bft) N-NW 337 -4,0 C -0,8 C
14.03.2013 17:51 -0,9 C 79 % 1011,6 hPa 0,0 l/m 1,4 km/h (1 Bft) N 360 -4,1 C -0,9 C
14.03.2013 17:56 -1,1 C 79 % 1011,6 hPa 0,0 l/m 0,0 km/h (0 Bft) NW 315 -4,3 C -1,1 C
14.03.2013 18:01 -1,2 C 79 % 1011,6 hPa 0,0 l/m 0,0 km/h (0 Bft) NW 315 -4,4 C -1,2 C
14.03.2013 18:06 -1,4 C 79 % 1011,8 hPa 0,0 l/m 0,0 km/h (0 Bft) NW 315 -4,6 C -1,4 C
14.03.2013 18:11 -1,6 C 80 % 1011,8 hPa 0,0 l/m 0,0 km/h (0 Bft) NW 315 -4,6 C -1,6 C
14.03.2013 18:16 -1,6 C 80 % 1011,8 hPa 0,0 l/m 0,0 km/h (0 Bft) NW 315 -4,6 C -1,6 C
14.03.2013 18:21 -1,7 C 80 % 1011,9 hPa 0,0 l/m 0,0 km/h (0 Bft) NW 315 -4,7 C -1,7 C
14.03.2013 18:26 -1,9 C 80 % 1012,0 hPa 0,0 l/m 0,0 km/h (0 Bft) NW 315 -4,9 C -1,9 C
14.03.2013 18:31 -1,9 C 80 % 1012,0 hPa 0,0 l/m 1,4 km/h (1 Bft) NW 315 -4,9 C -1,9 C
14.03.2013 18:36 -2,1 C 80 % 1012,0 hPa 0,0 l/m 0,0 km/h (0 Bft) NW 315 -5,1 C -2,1 C
14.03.2013 18:41 -2,1 C 80 % 1012,1 hPa 0,0 l/m 0,0 km/h (0 Bft) NW 315 -5,1 C -2,1 C
14.03.2013 18:46 -2,1 C 80 % 1012,1 hPa 0,0 l/m 0,0 km/h (0 Bft) NW 315 -5,1 C -2,1 C
14.03.2013 18:51 -2,2 C 81 % 1012,4 hPa 0,0 l/m 2,5 km/h (1 Bft) W 270 -5,0 C -2,2 C
14.03.2013 18:56 -2,4 C 81 % 1012,4 hPa 0,0 l/m 0,0 km/h (0 Bft) W 270 -5,2 C -2,4 C
14.03.2013 19:01 -2,4 C 81 % 1012,6 hPa 0,0 l/m 0,0 km/h (0 Bft) W 270 -5,2 C -2,4 C
14.03.2013 19:06 -2,5 C 81 % 1012,6 hPa 0,0 l/m 0,0 km/h (0 Bft) W 270 -5,3 C -2,5 C
14.03.2013 19:11 -2,6 C 81 % 1012,7 hPa 0,0 l/m 0,0 km/h (0 Bft) W-NW 292 -5,4 C -2,6 C
14.03.2013 19:16 -2,6 C 81 % 1012,6 hPa 0,0 l/m 0,0 km/h (0 Bft) W-NW 292 -5,4 C -2,6 C
14.03.2013 19:21 -2,7 C 81 % 1012,4 hPa 0,0 l/m 0,0 km/h (0 Bft) W-NW 292 -5,5 C -2,7 C
14.03.2013 19:26 -2,7 C 82 % 1012,5 hPa 0,0 l/m 0,0 km/h (0 Bft) W-NW 292 -5,3 C -2,7 C
14.03.2013 19:31 -2,7 C 82 % 1012,6 hPa 0,0 l/m 4,0 km/h (1 Bft) N-NW 337 -5,3 C -2,7 C
14.03.2013 19:36 -2,7 C 82 % 1012,7 hPa 0,0 l/m 2,9 km/h (1 Bft) N-NW 337 -5,3 C -2,7 C
14.03.2013 19:41 -2,7 C 83 % 1012,7 hPa 0,0 l/m 3,2 km/h (1 Bft) N-NW 337 -5,2 C -2,7 C
14.03.2013 19:46 -2,9 C 83 % 1012,7 hPa 0,0 l/m 0,0 km/h (0 Bft) N-NO 22 -5,4 C -2,9 C
14.03.2013 19:51 -2,9 C 83 % 1012,8 hPa 0,0 l/m 1,4 km/h (1 Bft) N 360 -5,4 C -2,9 C
14.03.2013 19:56 -2,9 C 84 % 1012,8 hPa 0,0 l/m 2,2 km/h (1 Bft) N 360 -5,2 C -2,9 C
14.03.2013 20:01 -2,9 C 84 % 1012,8 hPa 0,0 l/m 4,0 km/h (1 Bft) N 360 -5,2 C -2,9 C
14.03.2013 20:06 -2,7 C 84 % 1013,0 hPa 0,0 l/m 0,0 km/h (0 Bft) N-NO 22 -5,0 C -2,7 C
14.03.2013 20:11 -2,7 C 84 % 1013,0 hPa 0,0 l/m 3,2 km/h (1 Bft) N-NO 22 -5,0 C -2,7 C
14.03.2013 20:16 -2,7 C 84 % 1012,8 hPa 0,0 l/m 0,0 km/h (0 Bft) NO 45 -5,0 C -2,7 C
14.03.2013 20:21 -2,7 C 84 % 1013,0 hPa 0,0 l/m 1,4 km/h (1 Bft) O-NO 67 -5,0 C -2,7 C
14.03.2013 20:26 -2,7 C 84 % 1013,1 hPa 0,0 l/m 0,0 km/h (0 Bft) N-NO 22 -5,0 C -2,7 C
14.03.2013 20:31 -2,7 C 84 % 1012,9 hPa 0,0 l/m 4,0 km/h (1 Bft) N-NO 22 -5,0 C -2,7 C
14.03.2013 20:36 -2,7 C 84 % 1013,0 hPa 0,0 l/m 2,2 km/h (1 Bft) O-NO 67 -5,0 C -2,7 C
14.03.2013 20:41 -2,7 C 83 % 1013,2 hPa 0,0 l/m 0,0 km/h (0 Bft) N-NO 22 -5,2 C -2,7 C
14.03.2013 20:46 -2,7 C 83 % 1013,1 hPa 0,0 l/m 0,0 km/h (0 Bft) N-NO 22 -5,2 C -2,7 C
14.03.2013 20:51 -2,8 C 83 % 1013,3 hPa 0,0 l/m 2,2 km/h (1 Bft) NO 45 -5,3 C -2,8 C
14.03.2013 20:56 -2,8 C 83 % 1013,3 hPa 0,0 l/m 3,6 km/h (1 Bft) O-NO 67 -5,3 C -2,8 C
14.03.2013 21:01 -2,8 C 83 % 1013,3 hPa 0,0 l/m 2,5 km/h (1 Bft) O-NO 67 -5,3 C -2,8 C
14.03.2013 21:06 -2,8 C 83 % 1013,2 hPa 0,0 l/m 2,9 km/h (1 Bft) O-NO 67 -5,3 C -2,8 C
14.03.2013 21:11 -2,8 C 83 % 1013,2 hPa 0,0 l/m 0,0 km/h (0 Bft) O-NO 67 -5,3 C -2,8 C
14.03.2013 21:16 -2,9 C 83 % 1013,2 hPa 0,0 l/m 0,0 km/h (0 Bft) NO 45 -5,4 C -2,9 C
14.03.2013 21:21 -2,9 C 83 % 1013,3 hPa 0,0 l/m 0,0 km/h (0 Bft) NO 45 -5,4 C -2,9 C
14.03.2013 21:26 -3,0 C 82 % 1013,3 hPa 0,0 l/m 0,0 km/h (0 Bft) NO 45 -5,6 C -3,0 C
14.03.2013 21:31 -3,1 C 82 % 1013,4 hPa 0,0 l/m 2,5 km/h (1 Bft) NW 315 -5,7 C -3,1 C
14.03.2013 21:36 -3,2 C 82 % 1013,4 hPa 0,0 l/m 0,0 km/h (0 Bft) W-NW 292 -5,8 C -3,2 C
14.03.2013 21:41 -3,2 C 82 % 1013,4 hPa 0,0 l/m 0,0 km/h (0 Bft) W-NW 292 -5,8 C -3,2 C
14.03.2013 21:46 -3,4 C 82 % 1013,2 hPa 0,0 l/m 0,0 km/h (0 Bft) W-NW 292 -6,0 C -3,4 C
14.03.2013 21:51 -3,5 C 82 % 1013,3 hPa 0,0 l/m 2,2 km/h (1 Bft) W-NW 292 -6,1 C -3,5 C
14.03.2013 21:56 -3,6 C 82 % 1013,3 hPa 0,0 l/m 2,2 km/h (1 Bft) N-NO 22 -6,2 C -3,6 C
14.03.2013 22:01 -3,7 C 83 % 1013,2 hPa 0,0 l/m 2,5 km/h (1 Bft) N-NO 22 -6,2 C -3,7 C
14.03.2013 22:06 -3,7 C 83 % 1013,1 hPa 0,0 l/m 2,2 km/h (1 Bft) N 360 -6,2 C -3,7 C
14.03.2013 22:11 -3,7 C 84 % 1013,3 hPa 0,0 l/m 2,5 km/h (1 Bft) N-NO 22 -6,0 C -3,7 C
14.03.2013 22:16 -3,6 C 85 % 1013,2 hPa 0,0 l/m 6,1 km/h (2 Bft) N 360 -5,7 C -6,2 C
14.03.2013 22:21 -3,6 C 86 % 1013,2 hPa 0,0 l/m 1,8 km/h (1 Bft) N 360 -5,6 C -3,6 C
14.03.2013 22:26 -3,6 C 86 % 1013,2 hPa 0,0 l/m 1,4 km/h (1 Bft) NO 45 -5,6 C -3,6 C
14.03.2013 22:31 -3,6 C 86 % 1013,4 hPa 0,0 l/m 2,5 km/h (1 Bft) N-NO 22 -5,6 C -3,6 C
14.03.2013 22:36 -3,7 C 85 % 1013,4 hPa 0,0 l/m 0,0 km/h (0 Bft) N-NO 22 -5,8 C -3,7 C
14.03.2013 22:41 -3,8 C 85 % 1013,3 hPa 0,0 l/m 0,0 km/h (0 Bft) NO 45 -5,9 C -3,8 C
14.03.2013 22:46 -3,9 C 85 % 1013,5 hPa 0,0 l/m 1,4 km/h (1 Bft) N-NO 22 -6,0 C -3,9 C
14.03.2013 22:51 -3,9 C 85 % 1013,4 hPa 0,0 l/m 2,5 km/h (1 Bft) N-NO 22 -6,0 C -3,9 C
14.03.2013 22:56 -4,1 C 85 % 1013,3 hPa 0,0 l/m 5,8 km/h (2 Bft) N 360 -6,2 C -6,6 C
14.03.2013 23:01 -4,1 C 85 % 1013,4 hPa 0,0 l/m 0,0 km/h (0 Bft) N-NO 22 -6,2 C -4,1 C
14.03.2013 23:06 -4,1 C 86 % 1013,4 hPa 0,0 l/m 2,5 km/h (1 Bft) N-NO 22 -6,1 C -4,1 C
14.03.2013 23:11 -4,1 C 86 % 1013,4 hPa 0,0 l/m 0,0 km/h (0 Bft) NO 45 -6,1 C -4,1 C
14.03.2013 23:16 -4,1 C 86 % 1013,4 hPa 0,0 l/m 5,0 km/h (1 Bft) N 360 -6,1 C -6,2 C
14.03.2013 23:21 -3,9 C 86 % 1013,4 hPa 0,0 l/m 2,5 km/h (1 Bft) N-NO 22 -5,9 C -3,9 C
14.03.2013 23:26 -3,9 C 86 % 1013,4 hPa 0,0 l/m 1,1 km/h (1 Bft) NO 45 -5,9 C -3,9 C
14.03.2013 23:31 -3,9 C 86 % 1013,4 hPa 0,0 l/m 2,2 km/h (1 Bft) N-NO 22 -5,9 C -3,9 C
14.03.2013 23:36 -3,8 C 86 % 1013,4 hPa 0,0 l/m 2,5 km/h (1 Bft) N-NO 22 -5,8 C -3,8 C
14.03.2013 23:41 -3,9 C 86 % 1013,4 hPa 0,0 l/m 0,0 km/h (0 Bft) N-NO 22 -5,9 C -3,9 C
14.03.2013 23:46 -3,9 C 86 % 1013,4 hPa 0,0 l/m 0,0 km/h (0 Bft) NO 45 -5,9 C -3,9 C
14.03.2013 23:51 -3,9 C 86 % 1013,4 hPa 0,0 l/m 0,0 km/h (0 Bft) NO 45 -5,9 C -3,9 C
14.03.2013 23:56 -3,9 C 85 % 1013,4 hPa 0,0 l/m 0,0 km/h (0 Bft) N-NO 22 -6,0 C -3,9 C
_ Min-Zeit 00:31 15:51 00:21 - 00:16 - - 00:31 00:31
Minimum _ -7,9 C 64 % 1008,2 hPa - 0,0 km/h (0 Bft) - - -10,7 C -7,9 C
_ Max-Zeit 15:46 22:21 22:46 00:01 13:36 - - 12:06 15:46
Maximum _ 3,8 C 86 % 1013,5 hPa 0,0 l/m 6,1 km/h
W-NW (2 Bft)
- - -1,7 C 3,8 C
Durchschnitt _ -2,4 C 79 % 1010,6 hPa #0,0 l/m 1,5 km/h (1 Bft) O-SO - -5,5 C -2,5 C
(c) by David Heller